MMD12C EDLW-EDNY
Flight info
| Callsign | MMD12C |
|---|---|
| Flight time | N/A |
| Altitude | 19000 |
| Route | GMH8Q/06 GMH Z841 BIGSU L603 BOMBI N850 INKAM T725 LAMGO T721 SUL Z714 LEBSO N851 LOKTA T122 ARFAS |
| Aircraft | AT76/M-SDFGIRY/S |
Departure
| Time | N/A |
|---|---|
| Airport | Dortmund Airport (EDLW) |
Arrival
| Time | 2026-05-01 11:42 |
|---|---|
| Airport | Bodensee Airport Friedrichshafen (EDNY) |
| Time | Latitude | Longitude | Altitude | Speed | Heading |
|---|---|---|---|---|---|
| 2026-05-01 10:57 | 50.12468 | 8.79123 | 15371 ft | 266 kts | 170° |
| 2026-05-01 10:57 | 50.10623 | 8.79360 | 15370 ft | 266 kts | 170° |
| 2026-05-01 10:57 | 50.08772 | 8.79601 | 15368 ft | 266 kts | 170° |
| 2026-05-01 10:57 | 50.06924 | 8.79841 | 15367 ft | 267 kts | 169° |
| 2026-05-01 10:58 | 50.05075 | 8.79977 | 15374 ft | 268 kts | 179° |
| 2026-05-01 10:58 | 50.03217 | 8.79454 | 15369 ft | 274 kts | 189° |
| 2026-05-01 10:58 | 50.01365 | 8.78698 | 15376 ft | 276 kts | 191° |
| 2026-05-01 10:58 | 49.99508 | 8.77924 | 15376 ft | 277 kts | 190° |
| 2026-05-01 10:59 | 49.97641 | 8.77212 | 15366 ft | 276 kts | 188° |
| 2026-05-01 10:59 | 49.95775 | 8.76567 | 15364 ft | 275 kts | 187° |
| 2026-05-01 10:59 | 49.93904 | 8.75928 | 15365 ft | 275 kts | 188° |
| 2026-05-01 10:59 | 49.92035 | 8.75284 | 15375 ft | 275 kts | 188° |
| 2026-05-01 11:00 | 49.90161 | 8.74638 | 15368 ft | 276 kts | 188° |
| 2026-05-01 11:00 | 49.88289 | 8.73992 | 15360 ft | 275 kts | 188° |
| 2026-05-01 11:00 | 49.86415 | 8.73345 | 15362 ft | 275 kts | 187° |
| 2026-05-01 11:00 | 49.84573 | 8.72711 | 15360 ft | 275 kts | 188° |
| 2026-05-01 11:01 | 49.82711 | 8.72070 | 15357 ft | 274 kts | 187° |
| 2026-05-01 11:01 | 49.80848 | 8.71429 | 15354 ft | 273 kts | 187° |
| 2026-05-01 11:01 | 49.78994 | 8.70794 | 15365 ft | 273 kts | 187° |
| 2026-05-01 11:01 | 49.77135 | 8.70154 | 15375 ft | 274 kts | 187° |
| 2026-05-01 11:02 | 49.75269 | 8.69514 | 15360 ft | 275 kts | 187° |
| 2026-05-01 11:02 | 49.73395 | 8.68887 | 15359 ft | 275 kts | 185° |
| 2026-05-01 11:02 | 49.71506 | 8.68549 | 15346 ft | 272 kts | 179° |
| 2026-05-01 11:02 | 49.69619 | 8.68380 | 15352 ft | 272 kts | 178° |
| 2026-05-01 11:03 | 49.67734 | 8.68217 | 15346 ft | 271 kts | 178° |
| 2026-05-01 11:03 | 49.65848 | 8.68008 | 15347 ft | 272 kts | 179° |
| 2026-05-01 11:03 | 49.63964 | 8.67758 | 15349 ft | 272 kts | 180° |
| 2026-05-01 11:03 | 49.62074 | 8.67503 | 15349 ft | 272 kts | 179° |
| 2026-05-01 11:04 | 49.60185 | 8.67255 | 15349 ft | 272 kts | 179° |
| 2026-05-01 11:04 | 49.58297 | 8.66996 | 15338 ft | 272 kts | 179° |
| 2026-05-01 11:04 | 49.56413 | 8.66740 | 15338 ft | 271 kts | 179° |
| 2026-05-01 11:04 | 49.54535 | 8.66494 | 15350 ft | 271 kts | 179° |
| 2026-05-01 11:05 | 49.52657 | 8.66248 | 15350 ft | 270 kts | 179° |
| 2026-05-01 11:05 | 49.50783 | 8.65994 | 15346 ft | 270 kts | 179° |
| 2026-05-01 11:05 | 49.48910 | 8.65745 | 15342 ft | 270 kts | 179° |
| 2026-05-01 11:05 | 49.47038 | 8.65497 | 15351 ft | 270 kts | 180° |
| 2026-05-01 11:06 | 49.45166 | 8.65247 | 15350 ft | 270 kts | 180° |
| 2026-05-01 11:06 | 49.43318 | 8.65003 | 15348 ft | 270 kts | 180° |
| 2026-05-01 11:06 | 49.41446 | 8.64751 | 15353 ft | 270 kts | 180° |
| 2026-05-01 11:07 | 49.37700 | 8.64255 | 15338 ft | 270 kts | 179° |
| 2026-05-01 11:07 | 49.35829 | 8.64012 | 15343 ft | 270 kts | 180° |
| 2026-05-01 11:07 | 49.33961 | 8.63769 | 15342 ft | 269 kts | 180° |
| 2026-05-01 11:07 | 49.32093 | 8.63513 | 15342 ft | 269 kts | 181° |
| 2026-05-01 11:08 | 49.30227 | 8.63209 | 15343 ft | 270 kts | 181° |
| 2026-05-01 11:08 | 49.28360 | 8.62910 | 15343 ft | 270 kts | 181° |
| 2026-05-01 11:08 | 49.24622 | 8.62333 | 15342 ft | 270 kts | 181° |
| 2026-05-01 11:09 | 49.22756 | 8.62082 | 15336 ft | 266 kts | 174° |
| 2026-05-01 11:09 | 49.21035 | 8.62810 | 15350 ft | 252 kts | 146° |
| 2026-05-01 11:09 | 49.19514 | 8.64147 | 15331 ft | 252 kts | 145° |
| 2026-05-01 11:10 | 49.16312 | 8.66459 | 15325 ft | 257 kts | 155° |
| 2026-05-01 11:10 | 49.14616 | 8.67352 | 15324 ft | 259 kts | 157° |
| 2026-05-01 11:10 | 49.12900 | 8.68203 | 15334 ft | 259 kts | 157° |
| 2026-05-01 11:10 | 49.11184 | 8.69056 | 15337 ft | 260 kts | 157° |
| 2026-05-01 11:11 | 49.09470 | 8.69939 | 15326 ft | 260 kts | 156° |
| 2026-05-01 11:11 | 49.07756 | 8.70841 | 15330 ft | 261 kts | 156° |
| 2026-05-01 11:11 | 49.06043 | 8.71747 | 15325 ft | 261 kts | 156° |
| 2026-05-01 11:11 | 49.04332 | 8.72659 | 15320 ft | 260 kts | 156° |
| 2026-05-01 11:12 | 49.02622 | 8.73559 | 15322 ft | 260 kts | 156° |
| 2026-05-01 11:12 | 49.00913 | 8.74463 | 15322 ft | 260 kts | 156° |
| 2026-05-01 11:12 | 48.99204 | 8.75369 | 15329 ft | 260 kts | 156° |
| 2026-05-01 11:12 | 48.97494 | 8.76270 | 15322 ft | 261 kts | 156° |
| 2026-05-01 11:13 | 48.95784 | 8.77177 | 15323 ft | 260 kts | 156° |
| 2026-05-01 11:13 | 48.94072 | 8.78080 | 15328 ft | 261 kts | 156° |
| 2026-05-01 11:13 | 48.92359 | 8.78980 | 15317 ft | 260 kts | 156° |
| 2026-05-01 11:13 | 48.90647 | 8.79880 | 15321 ft | 260 kts | 156° |
| 2026-05-01 11:14 | 48.88935 | 8.80783 | 15323 ft | 260 kts | 156° |
| 2026-05-01 11:14 | 48.87241 | 8.81675 | 15330 ft | 260 kts | 156° |
| 2026-05-01 11:14 | 48.85524 | 8.82578 | 15327 ft | 261 kts | 156° |
| 2026-05-01 11:14 | 48.83809 | 8.83485 | 15322 ft | 261 kts | 156° |
| 2026-05-01 11:15 | 48.82087 | 8.84386 | 15317 ft | 262 kts | 156° |
| 2026-05-01 11:15 | 48.80365 | 8.85284 | 15332 ft | 262 kts | 156° |
| 2026-05-01 11:15 | 48.78642 | 8.86192 | 15317 ft | 262 kts | 156° |
| 2026-05-01 11:15 | 48.76916 | 8.87093 | 15316 ft | 263 kts | 156° |
| 2026-05-01 11:16 | 48.75189 | 8.87995 | 15327 ft | 263 kts | 156° |
| 2026-05-01 11:16 | 48.73460 | 8.88900 | 15318 ft | 263 kts | 156° |
| 2026-05-01 11:16 | 48.71729 | 8.89805 | 15312 ft | 262 kts | 156° |
| 2026-05-01 11:16 | 48.70008 | 8.90708 | 15322 ft | 262 kts | 156° |
| 2026-05-01 11:17 | 48.68284 | 8.91609 | 15323 ft | 262 kts | 156° |
| 2026-05-01 11:17 | 48.66580 | 8.92493 | 15317 ft | 262 kts | 156° |
| 2026-05-01 11:17 | 48.64855 | 8.93389 | 15325 ft | 262 kts | 156° |
| 2026-05-01 11:17 | 48.63130 | 8.94289 | 15321 ft | 263 kts | 156° |
| 2026-05-01 11:18 | 48.61402 | 8.95190 | 15315 ft | 263 kts | 156° |
| 2026-05-01 11:18 | 48.59673 | 8.96088 | 15321 ft | 263 kts | 157° |
| 2026-05-01 11:18 | 48.57946 | 8.96983 | 15318 ft | 263 kts | 157° |
| 2026-05-01 11:18 | 48.56214 | 8.97885 | 15313 ft | 262 kts | 156° |
| 2026-05-01 11:19 | 48.54488 | 8.98782 | 15316 ft | 263 kts | 157° |
| 2026-05-01 11:19 | 48.52761 | 8.99677 | 15321 ft | 263 kts | 157° |
| 2026-05-01 11:19 | 48.51029 | 9.00574 | 15330 ft | 264 kts | 157° |
| 2026-05-01 11:19 | 48.49292 | 9.01471 | 15326 ft | 264 kts | 157° |
| 2026-05-01 11:20 | 48.47548 | 9.02377 | 15321 ft | 265 kts | 157° |
| 2026-05-01 11:20 | 48.45802 | 9.03279 | 15322 ft | 265 kts | 157° |
| 2026-05-01 11:20 | 48.44055 | 9.04184 | 15318 ft | 265 kts | 157° |
| 2026-05-01 11:20 | 48.42307 | 9.05085 | 15311 ft | 266 kts | 157° |
| 2026-05-01 11:21 | 48.40558 | 9.05985 | 15325 ft | 266 kts | 157° |
| 2026-05-01 11:21 | 48.38806 | 9.06887 | 15308 ft | 266 kts | 157° |
| 2026-05-01 11:21 | 48.37051 | 9.07793 | 15316 ft | 266 kts | 157° |
| 2026-05-01 11:21 | 48.35276 | 9.08709 | 15084 ft | 272 kts | 157° |
| 2026-05-01 11:22 | 48.33462 | 9.09638 | 14652 ft | 279 kts | 157° |
| 2026-05-01 11:22 | 48.31611 | 9.10589 | 14240 ft | 283 kts | 157° |
| 2026-05-01 11:22 | 48.29742 | 9.11549 | 13812 ft | 285 kts | 157° |
| 2026-05-01 11:22 | 48.27861 | 9.12516 | 13378 ft | 286 kts | 157° |
| 2026-05-01 11:23 | 48.25973 | 9.13486 | 12918 ft | 287 kts | 158° |
| 2026-05-01 11:23 | 48.24085 | 9.14451 | 12475 ft | 286 kts | 158° |
| 2026-05-01 11:23 | 48.22204 | 9.15413 | 12045 ft | 285 kts | 158° |
| 2026-05-01 11:23 | 48.20477 | 9.16294 | 11574 ft | 285 kts | 158° |
| 2026-05-01 11:24 | 48.18748 | 9.17178 | 11148 ft | 284 kts | 158° |
| 2026-05-01 11:24 | 48.16945 | 9.18091 | 10647 ft | 261 kts | 158° |
| 2026-05-01 11:24 | 48.13597 | 9.18958 | 9633 ft | 234 kts | 172° |
| 2026-05-01 11:25 | 48.12002 | 9.19139 | 9116 ft | 226 kts | 171° |
| 2026-05-01 11:25 | 48.08963 | 9.19553 | 8164 ft | 213 kts | 169° |
| 2026-05-01 11:25 | 48.07521 | 9.19790 | 7799 ft | 205 kts | 169° |
| 2026-05-01 11:26 | 48.06118 | 9.20045 | 7432 ft | 202 kts | 168° |
| 2026-05-01 11:26 | 48.03303 | 9.20595 | 6992 ft | 211 kts | 169° |
| 2026-05-01 11:26 | 48.01828 | 9.20854 | 6812 ft | 215 kts | 169° |
| 2026-05-01 11:27 | 48.00329 | 9.21110 | 6656 ft | 218 kts | 169° |
| 2026-05-01 11:27 | 47.98807 | 9.21351 | 6501 ft | 221 kts | 170° |
| 2026-05-01 11:27 | 47.97791 | 9.21510 | 6381 ft | 222 kts | 170° |
| 2026-05-01 11:27 | 47.96252 | 9.21750 | 6221 ft | 223 kts | 171° |
| 2026-05-01 11:28 | 47.94712 | 9.21988 | 6161 ft | 222 kts | 169° |
| 2026-05-01 11:28 | 47.93176 | 9.22252 | 6068 ft | 222 kts | 169° |
| 2026-05-01 11:28 | 47.91643 | 9.22527 | 5924 ft | 221 kts | 169° |
| 2026-05-01 11:29 | 47.88600 | 9.23046 | 5948 ft | 217 kts | 169° |
| 2026-05-01 11:29 | 47.87108 | 9.23311 | 5984 ft | 215 kts | 170° |
| 2026-05-01 11:29 | 47.84202 | 9.23651 | 5894 ft | 204 kts | 185° |
| 2026-05-01 11:30 | 47.82833 | 9.23181 | 5863 ft | 200 kts | 190° |
| 2026-05-01 11:30 | 47.81485 | 9.22646 | 5875 ft | 200 kts | 192° |
| 2026-05-01 11:30 | 47.80141 | 9.22088 | 5795 ft | 200 kts | 192° |
| 2026-05-01 11:30 | 47.78800 | 9.21531 | 5698 ft | 200 kts | 191° |
| 2026-05-01 11:31 | 47.77456 | 9.21006 | 5609 ft | 200 kts | 190° |
| 2026-05-01 11:31 | 47.76108 | 9.20517 | 5572 ft | 199 kts | 189° |
| 2026-05-01 11:31 | 47.74754 | 9.20037 | 5412 ft | 202 kts | 190° |
| 2026-05-01 11:31 | 47.73386 | 9.19550 | 5153 ft | 198 kts | 190° |
| 2026-05-01 11:32 | 47.72103 | 9.19098 | 4884 ft | 186 kts | 189° |
| 2026-05-01 11:32 | 47.70894 | 9.18674 | 4920 ft | 175 kts | 189° |
| 2026-05-01 11:32 | 47.69689 | 9.18290 | 5047 ft | 181 kts | 188° |
| 2026-05-01 11:32 | 47.68424 | 9.17878 | 5113 ft | 187 kts | 190° |
| 2026-05-01 11:33 | 47.67186 | 9.17422 | 5139 ft | 179 kts | 191° |
| 2026-05-01 11:33 | 47.65998 | 9.16974 | 5139 ft | 174 kts | 192° |
| 2026-05-01 11:33 | 47.64824 | 9.16537 | 5159 ft | 173 kts | 191° |
| 2026-05-01 11:33 | 47.63668 | 9.16583 | 5156 ft | 167 kts | 156° |
| 2026-05-01 11:34 | 47.62640 | 9.17353 | 5080 ft | 165 kts | 148° |
| 2026-05-01 11:34 | 47.61663 | 9.18230 | 4957 ft | 162 kts | 146° |
| 2026-05-01 11:34 | 47.60725 | 9.19091 | 4881 ft | 156 kts | 145° |
| 2026-05-01 11:34 | 47.59847 | 9.19896 | 4751 ft | 149 kts | 145° |
| 2026-05-01 11:35 | 47.58975 | 9.20696 | 4651 ft | 148 kts | 145° |
| 2026-05-01 11:35 | 47.58068 | 9.21506 | 4532 ft | 156 kts | 145° |
| 2026-05-01 11:35 | 47.57152 | 9.22397 | 4458 ft | 158 kts | 138° |
| 2026-05-01 11:35 | 47.56727 | 9.23749 | 4293 ft | 139 kts | 84° |
| 2026-05-01 11:36 | 47.56993 | 9.25012 | 4130 ft | 120 kts | 69° |
| 2026-05-01 11:36 | 47.57341 | 9.26098 | 4035 ft | 117 kts | 61° |
| 2026-05-01 11:36 | 47.57749 | 9.27157 | 4070 ft | 118 kts | 59° |
| 2026-05-01 11:36 | 47.58206 | 9.28214 | 4155 ft | 125 kts | 55° |
| 2026-05-01 11:37 | 47.58683 | 9.29288 | 4063 ft | 124 kts | 59° |
| 2026-05-01 11:37 | 47.59108 | 9.30406 | 4101 ft | 125 kts | 61° |
| 2026-05-01 11:37 | 47.59524 | 9.31557 | 4212 ft | 126 kts | 61° |
| 2026-05-01 11:37 | 47.59965 | 9.32690 | 4135 ft | 127 kts | 60° |
| 2026-05-01 11:38 | 47.60403 | 9.33832 | 3951 ft | 127 kts | 60° |
| 2026-05-01 11:38 | 47.60836 | 9.34956 | 3775 ft | 127 kts | 59° |
| 2026-05-01 11:38 | 47.61282 | 9.36082 | 3604 ft | 126 kts | 59° |
| 2026-05-01 11:38 | 47.61724 | 9.37209 | 3439 ft | 127 kts | 59° |
| 2026-05-01 11:39 | 47.62168 | 9.38340 | 3259 ft | 127 kts | 60° |
| 2026-05-01 11:39 | 47.62603 | 9.39475 | 3065 ft | 124 kts | 60° |
| 2026-05-01 11:39 | 47.63027 | 9.40578 | 2870 ft | 123 kts | 59° |
| 2026-05-01 11:39 | 47.63453 | 9.41670 | 2687 ft | 121 kts | 59° |
| 2026-05-01 11:40 | 47.63879 | 9.42756 | 2491 ft | 123 kts | 59° |
| 2026-05-01 11:40 | 47.64311 | 9.43867 | 2300 ft | 125 kts | 59° |
| 2026-05-01 11:40 | 47.64757 | 9.44988 | 2153 ft | 128 kts | 59° |
| 2026-05-01 11:40 | 47.65216 | 9.46156 | 1985 ft | 134 kts | 60° |
| 2026-05-01 11:41 | 47.65685 | 9.47380 | 1854 ft | 139 kts | 62° |
| 2026-05-01 11:41 | 47.66157 | 9.48625 | 1641 ft | 136 kts | 60° |
| 2026-05-01 11:41 | 47.66620 | 9.49825 | 1421 ft | 130 kts | 61° |
| 2026-05-01 11:41 | 47.67035 | 9.50896 | 1351 ft | 89 kts | 59° |
| 2026-05-01 11:42 | 47.67211 | 9.51352 | 1359 ft | 31 kts | 59° |
| 2026-05-01 11:42 | 47.66044 | 9.48335 | 1719 ft | 133 kts | 61° |
| 2026-05-01 11:42 | 47.66492 | 9.49507 | 1464 ft | 129 kts | 61° |
| 2026-05-01 11:42 | 47.66917 | 9.50601 | 1347 ft | 112 kts | 58° |
| 2026-05-01 11:43 | 47.67190 | 9.51293 | 1358 ft | 44 kts | 61° |
| 2026-05-01 11:43 | 47.67305 | 9.51588 | 1358 ft | 0 kts | 60° |